createdAt,value
2024-05-09T00:00:38.723Z,599.00
2024-05-09T00:01:32.806Z,599.00
2024-05-09T00:02:31.859Z,597.00
2024-05-09T00:03:31.892Z,599.00
2024-05-09T00:04:31.844Z,601.00
2024-05-09T00:05:31.922Z,602.00
2024-05-09T00:06:31.826Z,599.00
2024-05-09T00:07:31.804Z,600.00
2024-05-09T00:08:31.990Z,600.00
2024-05-09T00:09:31.814Z,598.00
2024-05-09T00:10:36.166Z,598.00
2024-05-09T00:11:32.884Z,599.00
2024-05-09T00:12:31.851Z,599.00
2024-05-09T00:13:31.805Z,597.00
2024-05-09T00:14:31.954Z,595.00
2024-05-09T00:15:31.826Z,595.00
2024-05-09T00:16:31.831Z,596.00
2024-05-09T00:17:32.096Z,595.00
2024-05-09T00:18:31.938Z,595.00
2024-05-09T00:19:32.195Z,594.00
2024-05-09T00:20:38.138Z,594.00
2024-05-09T00:21:32.858Z,594.00
2024-05-09T00:22:31.838Z,594.00
2024-05-09T00:23:32.005Z,595.00
2024-05-09T00:24:31.834Z,594.00
2024-05-09T00:25:31.843Z,594.00
2024-05-09T00:26:31.926Z,593.00
2024-05-09T00:27:31.855Z,593.00
2024-05-09T00:28:31.838Z,593.00
2024-05-09T00:29:31.887Z,593.00
2024-05-09T00:30:35.333Z,593.00
2024-05-09T00:31:32.857Z,591.00
2024-05-09T00:32:32.020Z,592.00
2024-05-09T00:33:31.991Z,591.00
2024-05-09T00:34:31.958Z,591.00
2024-05-09T00:35:31.959Z,591.00
2024-05-09T00:36:31.868Z,592.00
2024-05-09T00:37:31.861Z,592.00
2024-05-09T00:38:31.993Z,593.00
2024-05-09T00:39:31.866Z,590.00
2024-05-09T00:40:38.706Z,589.00
2024-05-09T00:41:32.887Z,591.00
2024-05-09T00:42:31.868Z,592.00
2024-05-09T00:43:31.871Z,590.00
2024-05-09T00:44:31.949Z,588.00
2024-05-09T00:45:31.845Z,584.00
2024-05-09T00:46:31.855Z,588.00
2024-05-09T00:47:32.036Z,587.00
2024-05-09T00:48:32.141Z,588.00
2024-05-09T00:49:32.090Z,586.00
2024-05-09T00:50:36.419Z,584.00
2024-05-09T00:51:32.881Z,584.00
2024-05-09T00:52:31.876Z,586.00
2024-05-09T00:53:31.996Z,586.00
2024-05-09T00:54:31.886Z,588.00
2024-05-09T00:55:31.891Z,587.00
2024-05-09T00:56:31.934Z,583.00
2024-05-09T00:57:31.885Z,584.00
2024-05-09T00:58:31.898Z,585.00
2024-05-09T00:59:31.942Z,583.00
2024-05-09T01:00:38.414Z,582.00
2024-05-09T01:01:33.012Z,581.00
2024-05-09T01:02:32.003Z,582.00
2024-05-09T01:03:31.995Z,582.00
2024-05-09T01:04:31.991Z,583.00
2024-05-09T01:05:32.001Z,584.00
2024-05-09T01:06:31.905Z,586.00
2024-05-09T01:07:31.905Z,588.00
2024-05-09T01:08:31.998Z,587.00
2024-05-09T01:09:31.884Z,585.00
2024-05-09T01:10:34.852Z,586.00
2024-05-09T01:11:31.950Z,584.00
2024-05-09T01:12:32.036Z,583.00
2024-05-09T01:13:31.919Z,584.00
2024-05-09T01:14:31.965Z,584.00
2024-05-09T01:15:31.924Z,585.00
2024-05-09T01:16:31.899Z,586.00
2024-05-09T01:17:32.086Z,584.00
2024-05-09T01:18:32.054Z,584.00
2024-05-09T01:19:32.025Z,583.00
2024-05-09T01:20:40.281Z,584.00
2024-05-09T01:21:32.924Z,582.00
2024-05-09T01:22:31.923Z,580.00
2024-05-09T01:23:31.978Z,578.00
2024-05-09T01:24:31.910Z,577.00
2024-05-09T01:25:31.896Z,579.00
2024-05-09T01:26:32.017Z,579.00
2024-05-09T01:27:31.922Z,580.00
2024-05-09T01:28:31.920Z,579.00
2024-05-09T01:29:31.990Z,580.00
2024-05-09T01:30:35.394Z,580.00
2024-05-09T01:31:32.970Z,579.00
2024-05-09T01:32:32.077Z,579.00
2024-05-09T01:33:32.167Z,578.00
2024-05-09T01:34:31.943Z,579.00
2024-05-09T01:35:32.049Z,579.00
2024-05-09T01:36:31.955Z,578.00
2024-05-09T01:37:31.936Z,578.00
2024-05-09T01:38:32.011Z,578.00
2024-05-09T01:39:31.970Z,576.00
2024-05-09T01:40:37.627Z,578.00
2024-05-09T01:41:32.975Z,578.00
2024-05-09T01:42:31.963Z,579.00
2024-05-09T01:43:31.957Z,580.00
2024-05-09T01:44:32.032Z,579.00
2024-05-09T01:45:31.963Z,578.00
2024-05-09T01:46:31.958Z,580.00
2024-05-09T01:47:32.169Z,588.00
2024-05-09T01:48:32.002Z,590.00
2024-05-09T01:49:32.175Z,590.00
2024-05-09T01:51:31.977Z,586.00
2024-05-09T01:52:31.983Z,585.00
2024-05-09T01:53:32.082Z,584.00
2024-05-09T01:54:31.965Z,584.00
2024-05-09T01:55:31.974Z,584.00
2024-05-09T01:56:32.089Z,583.00
2024-05-09T01:57:31.970Z,583.00
2024-05-09T01:58:32.003Z,584.00
2024-05-09T01:59:32.085Z,586.00
2024-05-09T02:00:38.854Z,589.00
2024-05-09T02:01:55.437Z,589.00
2024-05-09T02:02:33.127Z,589.00
2024-05-09T02:03:32.098Z,588.00
2024-05-09T02:04:32.067Z,589.00
2024-05-09T02:05:32.175Z,587.00
2024-05-09T02:06:32.027Z,588.00
2024-05-09T02:07:32.022Z,589.00
2024-05-09T02:08:32.178Z,587.00
2024-05-09T02:09:32.016Z,588.00
2024-05-09T02:10:33.223Z,589.00
2024-05-09T02:11:32.108Z,589.00
2024-05-09T02:12:32.111Z,588.00
2024-05-09T02:13:32.019Z,589.00
2024-05-09T02:14:32.031Z,588.00
2024-05-09T02:15:32.024Z,589.00
2024-05-09T02:16:32.011Z,587.00
2024-05-09T02:17:32.084Z,585.00
2024-05-09T02:18:32.091Z,583.00
2024-05-09T02:19:32.143Z,583.00
2024-05-09T02:20:36.240Z,584.00
2024-05-09T02:21:33.008Z,584.00
2024-05-09T02:22:32.037Z,585.00
2024-05-09T02:23:32.108Z,584.00
2024-05-09T02:24:32.024Z,585.00
2024-05-09T02:25:32.206Z,584.00
2024-05-09T02:26:32.094Z,583.00
2024-05-09T02:27:32.050Z,584.00
2024-05-09T02:28:32.043Z,585.00
2024-05-09T02:29:32.157Z,584.00
2024-05-09T02:30:39.089Z,585.00
2024-05-09T02:31:33.059Z,585.00
2024-05-09T02:32:32.341Z,585.00
2024-05-09T02:33:32.225Z,587.00
2024-05-09T02:34:32.099Z,586.00
2024-05-09T02:35:32.115Z,589.00
2024-05-09T02:36:32.084Z,588.00
2024-05-09T02:37:32.098Z,587.00
2024-05-09T02:38:32.125Z,589.00
2024-05-09T02:39:32.072Z,590.00
2024-05-09T02:40:37.233Z,589.00
2024-05-09T02:41:33.121Z,590.00
2024-05-09T02:42:32.050Z,589.00
2024-05-09T02:43:32.091Z,590.00
2024-05-09T02:44:32.120Z,591.00
2024-05-09T02:45:32.080Z,590.00
2024-05-09T02:46:32.051Z,591.00
2024-05-09T02:47:32.205Z,588.00
2024-05-09T02:48:32.203Z,587.00
2024-05-09T02:49:32.158Z,585.00
2024-05-09T02:50:37.907Z,586.00
2024-05-09T02:51:33.092Z,586.00
2024-05-09T02:52:32.105Z,588.00
2024-05-09T02:53:32.158Z,589.00
2024-05-09T02:54:32.083Z,591.00
2024-05-09T02:55:32.102Z,590.00
2024-05-09T02:56:32.106Z,589.00
2024-05-09T02:57:32.095Z,589.00
2024-05-09T02:58:32.061Z,588.00
2024-05-09T02:59:32.152Z,588.00
2024-05-09T03:00:38.410Z,587.00
2024-05-09T03:01:33.159Z,588.00
2024-05-09T03:02:32.212Z,590.00
2024-05-09T03:03:32.247Z,591.00
2024-05-09T03:04:32.283Z,593.00
2024-05-09T03:05:32.255Z,588.00
2024-05-09T03:06:32.107Z,585.00
2024-05-09T03:07:32.082Z,586.00
2024-05-09T03:08:32.316Z,586.00
2024-05-09T03:09:32.091Z,582.00
2024-05-09T03:10:35.795Z,582.00
2024-05-09T03:11:33.249Z,582.00
2024-05-09T03:12:32.138Z,583.00
2024-05-09T03:13:32.134Z,584.00
2024-05-09T03:14:32.195Z,584.00
2024-05-09T03:15:32.118Z,584.00
2024-05-09T03:16:32.119Z,584.00
2024-05-09T03:17:32.356Z,585.00
2024-05-09T03:18:32.244Z,585.00
2024-05-09T03:19:32.179Z,585.00
2024-05-09T03:20:34.737Z,585.00
2024-05-09T03:21:32.144Z,585.00
2024-05-09T03:22:32.123Z,588.00
2024-05-09T03:23:32.180Z,588.00
2024-05-09T03:24:32.108Z,590.00
2024-05-09T03:25:32.149Z,588.00
2024-05-09T03:26:32.160Z,589.00
2024-05-09T03:27:32.131Z,590.00
2024-05-09T03:28:32.117Z,588.00
2024-05-09T03:29:32.185Z,587.00
2024-05-09T03:30:39.941Z,586.00
2024-05-09T03:31:33.157Z,587.00
2024-05-09T03:32:32.224Z,589.00
2024-05-09T03:33:32.386Z,592.00
2024-05-09T03:34:32.212Z,591.00
2024-05-09T03:35:32.237Z,590.00
2024-05-09T03:36:32.170Z,588.00
2024-05-09T03:37:32.149Z,586.00
2024-05-09T03:38:32.217Z,585.00
2024-05-09T03:39:32.148Z,584.00
2024-05-09T03:40:32.170Z,584.00
2024-05-09T03:41:32.387Z,583.00
2024-05-09T03:42:32.151Z,583.00
2024-05-09T03:43:32.147Z,584.00
2024-05-09T03:44:32.235Z,583.00
2024-05-09T03:45:32.235Z,583.00
2024-05-09T03:46:32.262Z,583.00
2024-05-09T03:47:32.495Z,583.00
2024-05-09T03:48:32.479Z,580.00
2024-05-09T03:49:32.562Z,580.00
2024-05-09T03:50:35.670Z,583.00
2024-05-09T03:51:32.443Z,582.00
2024-05-09T03:52:32.444Z,581.00
2024-05-09T03:53:32.558Z,582.00
2024-05-09T03:54:32.445Z,581.00
2024-05-09T03:55:32.532Z,579.00
2024-05-09T03:56:32.500Z,580.00
2024-05-09T03:57:32.465Z,581.00
2024-05-09T03:58:32.433Z,580.00
2024-05-09T03:59:32.542Z,578.00
2024-05-09T04:00:37.942Z,578.00
2024-05-09T04:01:33.520Z,580.00
2024-05-09T04:02:32.522Z,579.00
2024-05-09T04:03:32.723Z,579.00
2024-05-09T04:04:32.606Z,579.00
2024-05-09T04:05:32.516Z,581.00
2024-05-09T04:06:32.583Z,579.00
2024-05-09T04:07:32.463Z,580.00
2024-05-09T04:08:32.506Z,578.00
2024-05-09T04:09:32.478Z,580.00
2024-05-09T04:10:34.141Z,579.00
2024-05-09T04:11:32.782Z,579.00
2024-05-09T04:12:32.796Z,582.00
2024-05-09T04:13:32.764Z,584.00
2024-05-09T04:14:32.959Z,585.00
2024-05-09T04:15:32.921Z,583.00
2024-05-09T04:16:40.082Z,575.00
2024-05-09T04:17:40.272Z,572.00
2024-05-09T04:18:40.166Z,573.00
2024-05-09T04:19:40.194Z,572.00
2024-05-09T04:20:41.284Z,571.00
2024-05-09T04:21:40.079Z,567.00
2024-05-09T04:22:40.096Z,565.00
2024-05-09T04:23:40.140Z,567.00
2024-05-09T04:24:40.089Z,568.00
2024-05-09T04:25:40.086Z,569.00
2024-05-09T04:26:40.152Z,571.00
2024-05-09T04:27:40.121Z,568.00
2024-05-09T04:28:40.153Z,570.00
2024-05-09T04:29:40.159Z,571.00
2024-05-09T04:30:41.584Z,571.00
2024-05-09T04:31:49.453Z,572.00
2024-05-09T04:32:49.530Z,571.00
2024-05-09T04:33:49.572Z,573.00
2024-05-09T04:34:49.488Z,571.00
2024-05-09T04:35:49.419Z,572.00
2024-05-09T04:36:49.437Z,573.00
2024-05-09T04:37:49.484Z,575.00
2024-05-09T04:38:49.428Z,576.00
2024-05-09T04:39:49.441Z,576.00
2024-05-09T04:40:49.491Z,576.00
2024-05-09T04:41:49.438Z,575.00
2024-05-09T04:42:49.446Z,575.00
2024-05-09T04:43:49.564Z,575.00
2024-05-09T04:44:49.442Z,575.00
2024-05-09T04:45:49.446Z,575.00
2024-05-09T04:46:49.455Z,576.00
2024-05-09T04:47:49.637Z,576.00
2024-05-09T04:48:49.534Z,574.00
2024-05-09T04:49:49.472Z,575.00
2024-05-09T04:50:49.479Z,577.00
2024-05-09T04:51:49.472Z,576.00
2024-05-09T04:52:49.600Z,576.00
2024-05-09T04:53:49.497Z,577.00
2024-05-09T04:54:49.451Z,575.00
2024-05-09T04:55:49.552Z,575.00
2024-05-09T04:56:49.456Z,575.00
2024-05-09T04:57:49.488Z,578.00
2024-05-09T04:58:49.526Z,578.00
2024-05-09T04:59:49.468Z,577.00
2024-05-09T05:00:49.533Z,576.00
2024-05-09T05:01:49.610Z,575.00
2024-05-09T05:02:49.588Z,572.00
2024-05-09T05:03:49.792Z,571.00
2024-05-09T05:04:49.703Z,569.00
2024-05-09T05:05:49.523Z,570.00
2024-05-09T05:06:49.483Z,572.00
2024-05-09T05:07:49.509Z,571.00
2024-05-09T05:08:49.504Z,570.00
2024-05-09T05:09:49.541Z,574.00
2024-05-09T05:10:49.824Z,575.00
2024-05-09T05:11:49.830Z,575.00
2024-05-09T05:12:49.715Z,574.00
2024-05-09T05:13:49.771Z,574.00
2024-05-09T05:14:49.811Z,574.00
2024-05-09T05:15:49.837Z,575.00
2024-05-09T05:16:49.912Z,575.00
2024-05-09T05:17:50.166Z,572.00
2024-05-09T05:18:50.014Z,572.00
2024-05-09T05:19:50.177Z,574.00
2024-05-09T05:20:50.125Z,574.00
2024-05-09T05:21:50.090Z,575.00
2024-05-09T05:22:50.157Z,576.00
2024-05-09T05:23:50.198Z,577.00
2024-05-09T05:24:50.237Z,576.00
2024-05-09T05:25:50.337Z,574.00
2024-05-09T05:26:50.327Z,576.00
2024-05-09T05:27:50.366Z,577.00
2024-05-09T05:28:50.429Z,577.00
2024-05-09T05:29:50.489Z,578.00
2024-05-09T05:30:50.629Z,574.00
2024-05-09T05:31:50.671Z,577.00
2024-05-09T05:32:50.781Z,577.00
2024-05-09T05:33:50.675Z,580.00
2024-05-09T05:34:50.745Z,579.00
2024-05-09T05:35:50.698Z,579.00
2024-05-09T05:36:50.726Z,579.00
2024-05-09T05:37:50.859Z,578.00
2024-05-09T05:38:50.932Z,574.00
2024-05-09T05:39:50.877Z,573.00
2024-05-09T05:40:50.935Z,572.00
2024-05-09T05:41:50.965Z,572.00
2024-05-09T05:42:51.008Z,570.00
2024-05-09T05:43:51.111Z,572.00
2024-05-09T05:44:51.085Z,571.00
2024-05-09T05:45:51.131Z,571.00
2024-05-09T05:46:51.193Z,572.00
2024-05-09T05:47:51.385Z,572.00
2024-05-09T05:48:51.295Z,574.00
2024-05-09T05:49:51.287Z,577.00
2024-05-09T05:50:51.438Z,578.00
2024-05-09T05:51:51.374Z,579.00
2024-05-09T05:52:51.410Z,581.00
2024-05-09T05:53:51.480Z,581.00
2024-05-09T05:54:51.434Z,583.00
2024-05-09T05:55:51.511Z,583.00
2024-05-09T05:56:51.488Z,579.00
2024-05-09T05:57:51.504Z,579.00
2024-05-09T05:58:51.560Z,579.00
2024-05-09T05:59:51.555Z,577.00
2024-05-09T06:00:51.583Z,578.00
2024-05-09T06:01:51.705Z,578.00
2024-05-09T06:02:51.751Z,578.00
2024-05-09T06:03:51.830Z,577.00
2024-05-09T06:04:51.715Z,577.00
2024-05-09T06:05:51.662Z,579.00
2024-05-09T06:06:51.619Z,579.00
2024-05-09T06:07:51.668Z,579.00
2024-05-09T06:08:51.762Z,579.00
2024-05-09T06:09:51.720Z,578.00
2024-05-09T06:10:51.868Z,577.00
2024-05-09T06:11:51.967Z,577.00
2024-05-09T06:12:51.805Z,575.00
2024-05-09T06:13:51.944Z,572.00
2024-05-09T06:14:51.882Z,572.00
2024-05-09T06:15:51.987Z,572.00
2024-05-09T06:16:52.950Z,573.00
2024-05-09T06:17:52.123Z,574.00
2024-05-09T06:18:52.287Z,576.00
2024-05-09T06:19:52.196Z,576.00
2024-05-09T06:20:52.207Z,575.00
2024-05-09T06:21:52.161Z,576.00
2024-05-09T06:22:52.247Z,577.00
2024-05-09T06:23:52.295Z,579.00
2024-05-09T06:24:52.334Z,579.00
2024-05-09T06:25:52.460Z,578.00
2024-05-09T06:26:52.441Z,577.00
2024-05-09T06:27:52.513Z,574.00
2024-05-09T06:28:52.603Z,572.00
2024-05-09T06:29:52.587Z,572.00
2024-05-09T06:30:52.640Z,572.00
2024-05-09T06:31:52.801Z,573.00
2024-05-09T06:32:52.857Z,574.00
2024-05-09T06:33:52.979Z,573.00
2024-05-09T06:34:52.969Z,573.00
2024-05-09T06:35:53.052Z,572.00
2024-05-09T06:36:53.070Z,571.00
2024-05-09T06:37:53.247Z,570.00
2024-05-09T06:38:53.204Z,569.00
2024-05-09T06:39:53.286Z,570.00
2024-05-09T06:40:53.400Z,569.00
2024-05-09T06:41:53.429Z,568.00
2024-05-09T06:42:53.539Z,566.00
2024-05-09T06:43:53.619Z,566.00
2024-05-09T06:44:53.591Z,567.00
2024-05-09T06:45:53.691Z,567.00
2024-05-09T06:46:55.783Z,565.00
2024-05-09T06:47:53.929Z,562.00
2024-05-09T06:48:54.187Z,561.00
2024-05-09T06:49:53.776Z,560.00
2024-05-09T06:50:53.757Z,557.00
2024-05-09T06:51:53.746Z,556.00
2024-05-09T06:52:53.815Z,555.00
2024-05-09T06:53:53.770Z,554.00
2024-05-09T06:54:53.758Z,551.00
2024-05-09T06:55:53.878Z,548.00
2024-05-09T06:56:53.771Z,545.00
2024-05-09T06:57:53.776Z,548.00
2024-05-09T06:58:53.815Z,555.00
2024-05-09T06:59:53.767Z,553.00
2024-05-09T07:00:53.847Z,550.00
2024-05-09T07:01:53.812Z,549.00
2024-05-09T07:02:53.896Z,548.00
2024-05-09T07:03:53.838Z,548.00
2024-05-09T07:04:54.047Z,550.00
2024-05-09T07:05:53.855Z,552.00
2024-05-09T07:06:53.780Z,552.00
2024-05-09T07:07:53.795Z,553.00
2024-05-09T07:08:53.911Z,554.00
2024-05-09T07:09:53.802Z,556.00
2024-05-09T07:10:53.928Z,556.00
2024-05-09T07:11:53.906Z,554.00
2024-05-09T07:12:53.830Z,555.00
2024-05-09T07:13:53.901Z,554.00
2024-05-09T07:14:53.845Z,553.00
2024-05-09T07:15:53.919Z,552.00
2024-05-09T07:16:54.086Z,550.00
2024-05-09T07:17:54.211Z,550.00
2024-05-09T07:18:54.196Z,549.00
2024-05-09T07:19:54.141Z,546.00
2024-05-09T07:20:54.228Z,545.00
2024-05-09T07:21:54.248Z,543.00
2024-05-09T07:22:54.321Z,542.00
2024-05-09T07:23:54.443Z,544.00
2024-05-09T07:24:54.440Z,545.00
2024-05-09T07:25:54.605Z,545.00
2024-05-09T07:26:54.548Z,544.00
2024-05-09T07:27:54.667Z,547.00
2024-05-09T07:28:54.690Z,546.00
2024-05-09T07:29:54.725Z,545.00
2024-05-09T07:30:54.789Z,545.00
2024-05-09T07:31:54.909Z,545.00
2024-05-09T07:32:55.067Z,543.00
2024-05-09T07:33:55.078Z,541.00
2024-05-09T07:34:55.046Z,543.00
2024-05-09T07:35:55.086Z,543.00
2024-05-09T07:36:55.124Z,543.00
2024-05-09T07:37:55.251Z,543.00
2024-05-09T07:38:55.245Z,544.00
2024-05-09T07:39:55.309Z,544.00
2024-05-09T07:40:55.426Z,543.00
2024-05-09T07:41:55.405Z,547.00
2024-05-09T07:42:55.474Z,545.00
2024-05-09T07:43:55.568Z,545.00
2024-05-09T07:44:58.637Z,545.00
2024-05-09T07:45:59.167Z,545.00
2024-05-09T07:49:44.066Z,542.00
2024-05-09T07:50:34.738Z,544.00
2024-05-09T07:52:38.861Z,549.00
2024-05-09T07:53:21.853Z,549.00
2024-05-09T07:53:58.418Z,549.00
2024-05-09T07:54:56.824Z,546.00
2024-05-09T07:55:56.203Z,547.00
2024-05-09T07:56:55.724Z,544.00
2024-05-09T07:57:55.665Z,544.00
2024-05-09T07:58:55.850Z,544.00
2024-05-09T07:59:55.621Z,541.00
2024-05-09T08:00:55.702Z,543.00
2024-05-09T08:01:55.738Z,543.00
2024-05-09T08:02:55.665Z,543.00
2024-05-09T08:03:55.775Z,546.00
2024-05-09T08:04:55.714Z,548.00
2024-05-09T08:05:55.620Z,550.00
2024-05-09T08:06:55.733Z,548.00
2024-05-09T08:07:55.744Z,545.00
2024-05-09T08:08:56.028Z,545.00
2024-05-09T08:09:55.873Z,544.00
2024-05-09T08:10:55.880Z,544.00
2024-05-09T08:11:55.934Z,542.00
2024-05-09T08:12:55.957Z,544.00
2024-05-09T08:13:55.937Z,541.00
2024-05-09T08:14:55.954Z,538.00
2024-05-09T08:15:56.096Z,540.00
2024-05-09T08:16:56.140Z,540.00
2024-05-09T08:17:56.596Z,540.00
2024-05-09T08:18:56.229Z,540.00
2024-05-09T08:19:56.147Z,543.00
2024-05-09T08:20:56.181Z,543.00
2024-05-09T08:21:56.265Z,542.00
2024-05-09T08:22:56.306Z,544.00
2024-05-09T08:23:56.318Z,541.00
2024-05-09T08:24:56.352Z,541.00
2024-05-09T08:25:56.385Z,537.00
2024-05-09T08:26:56.399Z,536.00
2024-05-09T08:27:56.488Z,536.00
2024-05-09T08:28:56.502Z,534.00
2024-05-09T08:29:56.593Z,535.00
2024-05-09T08:30:56.629Z,535.00
2024-05-09T08:31:56.732Z,532.00
2024-05-09T08:32:56.710Z,532.00
2024-05-09T08:33:56.850Z,531.00
2024-05-09T08:34:56.855Z,531.00
2024-05-09T08:35:56.697Z,530.00
2024-05-09T08:37:01.584Z,531.00
2024-05-09T08:37:57.833Z,532.00
2024-05-09T08:38:56.758Z,532.00
2024-05-09T08:39:56.811Z,531.00
2024-05-09T08:40:56.834Z,533.00
2024-05-09T08:41:56.765Z,533.00
2024-05-09T08:42:56.823Z,535.00
2024-05-09T08:43:56.749Z,534.00
2024-05-09T08:44:56.737Z,534.00
2024-05-09T08:45:56.863Z,532.00
2024-05-09T08:46:56.747Z,529.00
2024-05-09T08:47:56.865Z,528.00
2024-05-09T08:48:56.943Z,529.00
2024-05-09T08:49:56.797Z,532.00
2024-05-09T08:50:56.787Z,531.00
2024-05-09T08:51:56.801Z,531.00
2024-05-09T08:52:56.762Z,531.00
2024-05-09T08:53:56.775Z,531.00
2024-05-09T08:54:56.777Z,530.00
2024-05-09T08:55:56.778Z,530.00
2024-05-09T08:56:56.793Z,528.00
2024-05-09T08:57:56.852Z,531.00
2024-05-09T08:58:56.782Z,534.00
2024-05-09T08:59:56.760Z,535.00
2024-05-09T09:00:56.905Z,535.00
2024-05-09T09:01:56.823Z,535.00
2024-05-09T09:02:56.815Z,533.00
2024-05-09T09:03:56.878Z,533.00
2024-05-09T09:04:56.872Z,533.00
2024-05-09T09:05:56.805Z,532.00
2024-05-09T09:06:58.300Z,532.00
2024-05-09T09:07:56.860Z,531.00
2024-05-09T09:08:56.850Z,529.00
2024-05-09T09:09:56.933Z,530.00
2024-05-09T09:10:56.907Z,529.00
2024-05-09T09:11:56.951Z,530.00
2024-05-09T09:12:56.948Z,529.00
2024-05-09T09:13:56.951Z,528.00
2024-05-09T09:14:56.979Z,528.00
2024-05-09T09:15:57.027Z,529.00
2024-05-09T09:16:56.997Z,530.00
2024-05-09T09:17:57.086Z,530.00
2024-05-09T09:18:57.184Z,529.00
2024-05-09T09:19:57.231Z,528.00
2024-05-09T09:20:57.034Z,526.00
2024-05-09T09:21:57.143Z,525.00
2024-05-09T09:22:57.089Z,525.00
2024-05-09T09:23:57.141Z,526.00
2024-05-09T09:24:57.154Z,524.00
2024-05-09T09:25:57.186Z,523.00
2024-05-09T09:26:57.172Z,523.00
2024-05-09T09:27:57.253Z,523.00
2024-05-09T09:28:57.224Z,521.00
2024-05-09T09:29:57.273Z,519.00
2024-05-09T09:30:57.312Z,519.00
2024-05-09T09:31:57.315Z,520.00
2024-05-09T09:32:57.427Z,522.00
2024-05-09T09:33:57.773Z,522.00
2024-05-09T09:34:57.436Z,523.00
2024-05-09T09:35:57.482Z,523.00
2024-05-09T09:36:57.548Z,522.00
2024-05-09T09:37:57.516Z,522.00
2024-05-09T09:38:57.544Z,525.00
2024-05-09T09:39:57.661Z,526.00
2024-05-09T09:40:57.653Z,523.00
2024-05-09T09:41:57.643Z,521.00
2024-05-09T09:42:57.755Z,520.00
2024-05-09T09:43:57.684Z,521.00
2024-05-09T09:45:04.354Z,522.00
2024-05-09T09:45:58.775Z,520.00
2024-05-09T09:46:57.741Z,518.00
2024-05-09T09:47:57.772Z,517.00
2024-05-09T09:48:57.869Z,516.00
2024-05-09T09:49:57.752Z,517.00
2024-05-09T09:50:57.766Z,518.00
2024-05-09T09:51:57.804Z,518.00
2024-05-09T09:52:57.734Z,517.00
2024-05-09T09:53:57.755Z,519.00
2024-05-09T09:54:57.795Z,521.00
2024-05-09T09:55:57.770Z,522.00
2024-05-09T09:56:57.825Z,522.00
2024-05-09T09:57:57.823Z,524.00
2024-05-09T09:58:57.774Z,525.00
2024-05-09T09:59:57.768Z,525.00
2024-05-09T10:00:57.857Z,524.00
2024-05-09T10:01:58.367Z,524.00
2024-05-09T10:02:57.863Z,525.00
2024-05-09T10:03:58.037Z,524.00
2024-05-09T10:04:58.043Z,524.00
2024-05-09T10:05:58.040Z,524.00
2024-05-09T10:06:58.047Z,526.00
2024-05-09T10:07:58.195Z,525.00
2024-05-09T10:08:58.087Z,523.00
2024-05-09T10:09:58.164Z,523.00
2024-05-09T10:10:58.251Z,522.00
2024-05-09T10:12:00.433Z,522.00
2024-05-09T10:12:58.524Z,521.00
2024-05-09T10:13:58.467Z,521.00
2024-05-09T10:14:58.522Z,521.00
2024-05-09T10:15:58.574Z,520.00
2024-05-09T10:16:58.629Z,520.00
2024-05-09T10:17:58.768Z,522.00
2024-05-09T10:18:58.894Z,522.00
2024-05-09T10:19:58.809Z,520.00
2024-05-09T10:20:58.771Z,517.00
2024-05-09T10:21:58.796Z,516.00
2024-05-09T10:22:58.857Z,516.00
2024-05-09T10:23:58.909Z,516.00
2024-05-09T10:24:59.189Z,514.00
2024-05-09T10:25:59.017Z,514.00
2024-05-09T10:26:59.006Z,514.00
2024-05-09T10:27:59.092Z,514.00
2024-05-09T10:28:59.102Z,512.00
2024-05-09T10:29:59.133Z,512.00
2024-05-09T10:30:59.180Z,509.00
2024-05-09T10:31:59.207Z,506.00
2024-05-09T10:32:59.342Z,505.00
2024-05-09T10:33:59.508Z,505.00
2024-05-09T10:34:59.380Z,506.00
2024-05-09T10:35:59.392Z,505.00
2024-05-09T10:37:00.393Z,507.00
2024-05-09T10:37:59.493Z,508.00
2024-05-09T10:38:59.493Z,507.00
2024-05-09T10:39:59.564Z,506.00
2024-05-09T10:40:59.588Z,508.00
2024-05-09T10:41:59.607Z,508.00
2024-05-09T10:43:01.913Z,506.00
2024-05-09T10:43:59.688Z,506.00
2024-05-09T10:44:59.680Z,506.00
2024-05-09T10:45:59.749Z,509.00
2024-05-09T10:46:59.702Z,511.00
2024-05-09T10:47:59.805Z,509.00
2024-05-09T10:49:01.689Z,509.00
2024-05-09T10:49:59.746Z,510.00
2024-05-09T10:50:59.713Z,509.00
2024-05-09T10:51:59.769Z,510.00
2024-05-09T10:52:59.696Z,511.00
2024-05-09T10:53:59.686Z,511.00
2024-05-09T10:55:01.047Z,512.00
2024-05-09T10:55:59.709Z,512.00
2024-05-09T10:56:59.693Z,514.00
2024-05-09T10:57:59.769Z,515.00
2024-05-09T10:58:59.679Z,514.00
2024-05-09T10:59:59.675Z,515.00
2024-05-09T11:01:02.373Z,514.00
2024-05-09T11:01:59.761Z,512.00
2024-05-09T11:02:59.720Z,512.00
2024-05-09T11:03:59.918Z,511.00
2024-05-09T11:04:59.747Z,512.00
2024-05-09T11:05:59.692Z,510.00
2024-05-09T11:07:01.564Z,510.00
2024-05-09T11:07:59.723Z,509.00
2024-05-09T11:08:59.695Z,511.00
2024-05-09T11:09:59.751Z,510.00
2024-05-09T11:10:59.968Z,511.00
2024-05-09T11:11:59.777Z,511.00
2024-05-09T11:12:59.806Z,511.00
2024-05-09T11:13:59.729Z,511.00
2024-05-09T11:14:59.704Z,512.00
2024-05-09T11:15:59.753Z,513.00
2024-05-09T11:16:59.729Z,513.00
2024-05-09T11:17:59.752Z,513.00
2024-05-09T11:18:59.970Z,512.00
2024-05-09T11:19:59.753Z,512.00
2024-05-09T11:20:59.722Z,512.00
2024-05-09T11:21:59.794Z,514.00
2024-05-09T11:22:59.817Z,514.00
2024-05-09T11:23:59.768Z,511.00
2024-05-09T11:24:59.817Z,513.00
2024-05-09T11:25:59.736Z,514.00
2024-05-09T11:26:59.736Z,512.00
2024-05-09T11:27:59.761Z,510.00
2024-05-09T11:28:59.729Z,512.00
2024-05-09T11:29:59.731Z,511.00
2024-05-09T11:30:59.958Z,510.00
2024-05-09T11:31:59.740Z,508.00
2024-05-09T11:33:00.121Z,506.00
2024-05-09T11:33:59.765Z,506.00
2024-05-09T11:34:59.763Z,505.00
2024-05-09T11:35:59.730Z,506.00
2024-05-09T11:36:59.784Z,508.00
2024-05-09T11:37:59.750Z,509.00
2024-05-09T11:38:59.792Z,510.00
2024-05-09T11:39:59.890Z,510.00
2024-05-09T11:40:59.887Z,509.00
2024-05-09T11:41:59.957Z,508.00
2024-05-09T11:43:00.046Z,509.00
2024-05-09T11:44:00.037Z,510.00
2024-05-09T11:45:00.120Z,511.00
2024-05-09T11:46:00.218Z,512.00
2024-05-09T11:47:00.188Z,512.00
2024-05-09T11:48:00.436Z,510.00
2024-05-09T11:49:00.526Z,508.00
2024-05-09T11:50:00.496Z,510.00
2024-05-09T11:51:00.396Z,508.00
2024-05-09T11:52:00.672Z,505.00
2024-05-09T11:53:00.477Z,506.00
2024-05-09T11:54:00.556Z,507.00
2024-05-09T11:55:00.637Z,508.00
2024-05-09T11:56:00.634Z,510.00
2024-05-09T11:57:00.667Z,509.00
2024-05-09T11:58:00.744Z,509.00
2024-05-09T11:59:00.807Z,510.00
2024-05-09T12:00:00.839Z,510.00
2024-05-09T12:01:00.941Z,510.00
2024-05-09T12:02:01.002Z,511.00
2024-05-09T12:03:01.002Z,510.00
2024-05-09T12:04:01.387Z,509.00
2024-05-09T12:05:01.136Z,507.00
2024-05-09T12:06:01.311Z,507.00
2024-05-09T12:07:01.192Z,508.00
2024-05-09T12:08:01.196Z,510.00
2024-05-09T12:09:01.269Z,511.00
2024-05-09T12:10:01.382Z,509.00
2024-05-09T12:11:01.604Z,509.00
2024-05-09T12:12:01.412Z,509.00
2024-05-09T12:13:01.533Z,510.00
2024-05-09T12:14:01.506Z,511.00
2024-05-09T12:15:01.556Z,510.00
2024-05-09T12:16:01.716Z,510.00
2024-05-09T12:17:01.680Z,507.00
2024-05-09T12:18:03.831Z,503.00
2024-05-09T12:19:01.927Z,502.00
2024-05-09T12:20:01.713Z,500.00
2024-05-09T12:21:01.730Z,501.00
2024-05-09T12:22:01.754Z,502.00
2024-05-09T12:23:01.695Z,501.00
2024-05-09T12:24:01.708Z,502.00
2024-05-09T12:25:01.723Z,503.00
2024-05-09T12:26:01.780Z,500.00
2024-05-09T12:27:01.719Z,499.00
2024-05-09T12:28:01.868Z,499.00
2024-05-09T12:29:01.728Z,498.00
2024-05-09T12:30:01.691Z,497.00
2024-05-09T12:31:01.730Z,499.00
2024-05-09T12:32:01.762Z,500.00
2024-05-09T12:33:01.812Z,498.00